sensor_id;sensor_type;location;lat;lon;timestamp;P1;durP1;ratioP1;P2;durP2;ratioP2
50495;SDS011;38806;51.554;5.704;2023-04-25T00:00:31;14.05;;;6.13;;
50495;SDS011;38806;51.554;5.704;2023-04-25T00:02:31;11.43;;;5.30;;
50495;SDS011;38806;51.554;5.704;2023-04-25T00:04:32;17.63;;;6.85;;
50495;SDS011;38806;51.554;5.704;2023-04-25T00:06:36;14.02;;;5.80;;
50495;SDS011;38806;51.554;5.704;2023-04-25T00:08:36;22.75;;;6.38;;
50495;SDS011;38806;51.554;5.704;2023-04-25T00:10:36;15.07;;;5.80;;
50495;SDS011;38806;51.554;5.704;2023-04-25T00:12:37;27.25;;;8.38;;
50495;SDS011;38806;51.554;5.704;2023-04-25T00:14:37;13.18;;;5.55;;
50495;SDS011;38806;51.554;5.704;2023-04-25T00:16:37;27.30;;;7.45;;
50495;SDS011;38806;51.554;5.704;2023-04-25T00:18:38;10.90;;;5.45;;
50495;SDS011;38806;51.554;5.704;2023-04-25T00:20:39;14.57;;;4.82;;
50495;SDS011;38806;51.554;5.704;2023-04-25T00:22:40;14.13;;;5.22;;
50495;SDS011;38806;51.554;5.704;2023-04-25T00:24:40;22.58;;;7.88;;
50495;SDS011;38806;51.554;5.704;2023-04-25T00:26:40;26.20;;;7.53;;
50495;SDS011;38806;51.554;5.704;2023-04-25T00:28:40;16.02;;;8.55;;
50495;SDS011;38806;51.554;5.704;2023-04-25T00:30:41;13.30;;;5.20;;
50495;SDS011;38806;51.554;5.704;2023-04-25T00:32:41;13.98;;;6.63;;
50495;SDS011;38806;51.554;5.704;2023-04-25T00:34:41;16.88;;;6.65;;
50495;SDS011;38806;51.554;5.704;2023-04-25T00:36:41;14.52;;;6.07;;
50495;SDS011;38806;51.554;5.704;2023-04-25T00:38:41;12.75;;;6.35;;
50495;SDS011;38806;51.554;5.704;2023-04-25T00:40:42;19.30;;;6.25;;
50495;SDS011;38806;51.554;5.704;2023-04-25T00:42:43;11.45;;;5.57;;
50495;SDS011;38806;51.554;5.704;2023-04-25T00:44:44;12.05;;;5.68;;
50495;SDS011;38806;51.554;5.704;2023-04-25T00:46:45;18.83;;;6.32;;
50495;SDS011;38806;51.554;5.704;2023-04-25T00:48:46;11.93;;;4.97;;
50495;SDS011;38806;51.554;5.704;2023-04-25T00:50:49;14.30;;;6.80;;
50495;SDS011;38806;51.554;5.704;2023-04-25T00:52:50;21.80;;;5.15;;
50495;SDS011;38806;51.554;5.704;2023-04-25T00:54:51;16.90;;;6.65;;
50495;SDS011;38806;51.554;5.704;2023-04-25T00:56:51;22.88;;;5.82;;
50495;SDS011;38806;51.554;5.704;2023-04-25T00:58:53;13.60;;;6.70;;
50495;SDS011;38806;51.554;5.704;2023-04-25T01:00:54;16.25;;;6.70;;
50495;SDS011;38806;51.554;5.704;2023-04-25T01:02:56;23.35;;;6.32;;
50495;SDS011;38806;51.554;5.704;2023-04-25T01:04:56;21.20;;;6.35;;
50495;SDS011;38806;51.554;5.704;2023-04-25T01:06:57;18.20;;;7.68;;
50495;SDS011;38806;51.554;5.704;2023-04-25T01:08:58;15.90;;;5.47;;
50495;SDS011;38806;51.554;5.704;2023-04-25T01:10:58;17.33;;;6.80;;
50495;SDS011;38806;51.554;5.704;2023-04-25T01:12:59;18.58;;;7.78;;
50495;SDS011;38806;51.554;5.704;2023-04-25T01:14:59;18.48;;;7.38;;
50495;SDS011;38806;51.554;5.704;2023-04-25T01:16:59;19.60;;;7.05;;
50495;SDS011;38806;51.554;5.704;2023-04-25T01:18:59;21.95;;;6.65;;
50495;SDS011;38806;51.554;5.704;2023-04-25T01:21:09;17.10;;;6.97;;
50495;SDS011;38806;51.554;5.704;2023-04-25T01:23:10;15.27;;;6.95;;
50495;SDS011;38806;51.554;5.704;2023-04-25T01:25:10;23.45;;;8.85;;
50495;SDS011;38806;51.554;5.704;2023-04-25T01:27:10;19.70;;;9.32;;
50495;SDS011;38806;51.554;5.704;2023-04-25T01:29:11;21.80;;;6.65;;
50495;SDS011;38806;51.554;5.704;2023-04-25T01:31:11;21.38;;;7.53;;
50495;SDS011;38806;51.554;5.704;2023-04-25T01:33:12;21.73;;;7.00;;
50495;SDS011;38806;51.554;5.704;2023-04-25T01:35:13;17.73;;;6.45;;
50495;SDS011;38806;51.554;5.704;2023-04-25T01:37:14;23.55;;;7.40;;
50495;SDS011;38806;51.554;5.704;2023-04-25T01:39:15;21.60;;;7.95;;
50495;SDS011;38806;51.554;5.704;2023-04-25T01:41:15;18.42;;;6.57;;
50495;SDS011;38806;51.554;5.704;2023-04-25T01:43:17;24.65;;;7.53;;
50495;SDS011;38806;51.554;5.704;2023-04-25T01:45:17;19.63;;;7.53;;
50495;SDS011;38806;51.554;5.704;2023-04-25T01:47:17;17.38;;;7.45;;
50495;SDS011;38806;51.554;5.704;2023-04-25T01:49:17;24.50;;;8.82;;
50495;SDS011;38806;51.554;5.704;2023-04-25T01:51:17;17.60;;;7.53;;
50495;SDS011;38806;51.554;5.704;2023-04-25T01:53:18;15.27;;;6.65;;
50495;SDS011;38806;51.554;5.704;2023-04-25T01:55:18;19.90;;;7.82;;
50495;SDS011;38806;51.554;5.704;2023-04-25T01:57:18;20.00;;;7.80;;
50495;SDS011;38806;51.554;5.704;2023-04-25T01:59:18;19.88;;;7.55;;
50495;SDS011;38806;51.554;5.704;2023-04-25T02:01:19;23.50;;;7.50;;
50495;SDS011;38806;51.554;5.704;2023-04-25T02:03:20;18.55;;;6.95;;
50495;SDS011;38806;51.554;5.704;2023-04-25T02:05:20;21.30;;;7.47;;
50495;SDS011;38806;51.554;5.704;2023-04-25T02:07:20;17.42;;;6.32;;
50495;SDS011;38806;51.554;5.704;2023-04-25T02:09:20;23.05;;;6.50;;
50495;SDS011;38806;51.554;5.704;2023-04-25T02:11:21;24.63;;;8.77;;
50495;SDS011;38806;51.554;5.704;2023-04-25T02:13:21;24.92;;;7.88;;
50495;SDS011;38806;51.554;5.704;2023-04-25T02:15:21;21.40;;;9.05;;
50495;SDS011;38806;51.554;5.704;2023-04-25T02:17:21;33.55;;;10.73;;
50495;SDS011;38806;51.554;5.704;2023-04-25T02:19:22;25.95;;;9.52;;
50495;SDS011;38806;51.554;5.704;2023-04-25T02:21:22;23.05;;;7.93;;
50495;SDS011;38806;51.554;5.704;2023-04-25T02:23:22;17.80;;;7.72;;
50495;SDS011;38806;51.554;5.704;2023-04-25T02:25:22;21.92;;;9.40;;
50495;SDS011;38806;51.554;5.704;2023-04-25T02:27:22;26.35;;;10.43;;
50495;SDS011;38806;51.554;5.704;2023-04-25T02:29:23;18.05;;;6.80;;
50495;SDS011;38806;51.554;5.704;2023-04-25T02:31:23;21.23;;;7.82;;
50495;SDS011;38806;51.554;5.704;2023-04-25T02:33:23;18.75;;;6.80;;
50495;SDS011;38806;51.554;5.704;2023-04-25T02:35:23;23.13;;;8.43;;
50495;SDS011;38806;51.554;5.704;2023-04-25T02:37:24;24.70;;;8.57;;
50495;SDS011;38806;51.554;5.704;2023-04-25T02:39:24;23.85;;;7.45;;
50495;SDS011;38806;51.554;5.704;2023-04-25T02:41:27;23.58;;;8.18;;
50495;SDS011;38806;51.554;5.704;2023-04-25T02:43:27;25.10;;;10.30;;
50495;SDS011;38806;51.554;5.704;2023-04-25T02:45:27;26.20;;;8.52;;
50495;SDS011;38806;51.554;5.704;2023-04-25T02:47:27;21.17;;;9.05;;
50495;SDS011;38806;51.554;5.704;2023-04-25T02:49:27;25.15;;;9.80;;
50495;SDS011;38806;51.554;5.704;2023-04-25T02:51:27;24.67;;;8.52;;
50495;SDS011;38806;51.554;5.704;2023-04-25T02:53:28;23.75;;;9.07;;
50495;SDS011;38806;51.554;5.704;2023-04-25T02:55:28;28.08;;;7.95;;
50495;SDS011;38806;51.554;5.704;2023-04-25T02:57:28;24.85;;;8.00;;
50495;SDS011;38806;51.554;5.704;2023-04-25T02:59:28;22.17;;;8.13;;
50495;SDS011;38806;51.554;5.704;2023-04-25T03:01:28;22.45;;;7.70;;
50495;SDS011;38806;51.554;5.704;2023-04-25T03:03:29;31.25;;;9.77;;
50495;SDS011;38806;51.554;5.704;2023-04-25T03:05:29;24.45;;;9.52;;
50495;SDS011;38806;51.554;5.704;2023-04-25T03:07:29;25.25;;;9.68;;
50495;SDS011;38806;51.554;5.704;2023-04-25T03:09:30;31.67;;;10.38;;
50495;SDS011;38806;51.554;5.704;2023-04-25T03:11:30;22.58;;;8.48;;
50495;SDS011;38806;51.554;5.704;2023-04-25T03:13:30;35.38;;;13.25;;
50495;SDS011;38806;51.554;5.704;2023-04-25T03:15:30;27.05;;;9.63;;
50495;SDS011;38806;51.554;5.704;2023-04-25T03:17:31;26.23;;;9.35;;
50495;SDS011;38806;51.554;5.704;2023-04-25T03:19:31;32.60;;;12.45;;
50495;SDS011;38806;51.554;5.704;2023-04-25T03:21:32;26.48;;;9.68;;
50495;SDS011;38806;51.554;5.704;2023-04-25T03:23:32;33.20;;;10.20;;
50495;SDS011;38806;51.554;5.704;2023-04-25T03:25:32;25.10;;;9.65;;
50495;SDS011;38806;51.554;5.704;2023-04-25T03:27:33;28.45;;;10.65;;
50495;SDS011;38806;51.554;5.704;2023-04-25T03:29:33;34.97;;;11.13;;
50495;SDS011;38806;51.554;5.704;2023-04-25T03:31:33;29.55;;;9.85;;
50495;SDS011;38806;51.554;5.704;2023-04-25T03:33:33;31.90;;;12.48;;
50495;SDS011;38806;51.554;5.704;2023-04-25T03:35:33;30.05;;;10.13;;
50495;SDS011;38806;51.554;5.704;2023-04-25T03:37:33;35.45;;;9.73;;
50495;SDS011;38806;51.554;5.704;2023-04-25T03:39:34;23.40;;;10.93;;
50495;SDS011;38806;51.554;5.704;2023-04-25T03:41:34;29.92;;;10.60;;
50495;SDS011;38806;51.554;5.704;2023-04-25T03:43:34;29.77;;;11.32;;
50495;SDS011;38806;51.554;5.704;2023-04-25T03:45:35;31.73;;;13.07;;
50495;SDS011;38806;51.554;5.704;2023-04-25T03:47:35;32.78;;;11.65;;
50495;SDS011;38806;51.554;5.704;2023-04-25T03:49:35;27.75;;;12.23;;
50495;SDS011;38806;51.554;5.704;2023-04-25T03:51:36;31.67;;;11.35;;
50495;SDS011;38806;51.554;5.704;2023-04-25T03:53:36;32.03;;;11.77;;
50495;SDS011;38806;51.554;5.704;2023-04-25T03:55:36;31.65;;;10.63;;
50495;SDS011;38806;51.554;5.704;2023-04-25T03:57:36;23.98;;;10.07;;
50495;SDS011;38806;51.554;5.704;2023-04-25T03:59:36;31.10;;;11.68;;
50495;SDS011;38806;51.554;5.704;2023-04-25T04:01:37;23.23;;;11.20;;
50495;SDS011;38806;51.554;5.704;2023-04-25T04:03:37;21.63;;;9.10;;
50495;SDS011;38806;51.554;5.704;2023-04-25T04:05:37;25.15;;;10.45;;
50495;SDS011;38806;51.554;5.704;2023-04-25T04:07:40;25.60;;;10.93;;
50495;SDS011;38806;51.554;5.704;2023-04-25T04:09:42;26.52;;;9.10;;
50495;SDS011;38806;51.554;5.704;2023-04-25T04:11:42;24.17;;;9.85;;
50495;SDS011;38806;51.554;5.704;2023-04-25T04:13:42;32.05;;;10.98;;
50495;SDS011;38806;51.554;5.704;2023-04-25T04:15:43;23.75;;;10.43;;
50495;SDS011;38806;51.554;5.704;2023-04-25T04:17:43;28.65;;;9.25;;
50495;SDS011;38806;51.554;5.704;2023-04-25T04:19:43;34.03;;;10.70;;
50495;SDS011;38806;51.554;5.704;2023-04-25T04:21:44;20.38;;;8.65;;
50495;SDS011;38806;51.554;5.704;2023-04-25T04:23:44;28.98;;;10.52;;
50495;SDS011;38806;51.554;5.704;2023-04-25T04:25:44;26.17;;;11.15;;
50495;SDS011;38806;51.554;5.704;2023-04-25T04:27:45;26.83;;;9.52;;
50495;SDS011;38806;51.554;5.704;2023-04-25T04:29:46;24.15;;;8.43;;
50495;SDS011;38806;51.554;5.704;2023-04-25T04:31:49;22.48;;;9.38;;
50495;SDS011;38806;51.554;5.704;2023-04-25T04:33:49;24.15;;;10.02;;
50495;SDS011;38806;51.554;5.704;2023-04-25T04:35:50;31.70;;;9.07;;
50495;SDS011;38806;51.554;5.704;2023-04-25T04:37:53;30.17;;;10.00;;
50495;SDS011;38806;51.554;5.704;2023-04-25T04:39:53;39.85;;;11.13;;
50495;SDS011;38806;51.554;5.704;2023-04-25T04:41:53;25.73;;;9.30;;
50495;SDS011;38806;51.554;5.704;2023-04-25T04:43:53;28.25;;;9.20;;
50495;SDS011;38806;51.554;5.704;2023-04-25T04:45:55;23.17;;;9.18;;
50495;SDS011;38806;51.554;5.704;2023-04-25T04:47:56;25.45;;;9.50;;
50495;SDS011;38806;51.554;5.704;2023-04-25T04:49:56;30.33;;;10.55;;
50495;SDS011;38806;51.554;5.704;2023-04-25T04:51:57;19.15;;;9.55;;
50495;SDS011;38806;51.554;5.704;2023-04-25T04:53:58;28.20;;;8.80;;
50495;SDS011;38806;51.554;5.704;2023-04-25T04:56:02;27.42;;;10.40;;
50495;SDS011;38806;51.554;5.704;2023-04-25T04:58:02;22.80;;;9.75;;
50495;SDS011;38806;51.554;5.704;2023-04-25T05:00:02;24.45;;;11.70;;
50495;SDS011;38806;51.554;5.704;2023-04-25T05:02:05;31.13;;;10.50;;
50495;SDS011;38806;51.554;5.704;2023-04-25T05:04:05;28.13;;;10.95;;
50495;SDS011;38806;51.554;5.704;2023-04-25T05:06:05;25.88;;;8.55;;
50495;SDS011;38806;51.554;5.704;2023-04-25T05:08:06;24.02;;;9.02;;
50495;SDS011;38806;51.554;5.704;2023-04-25T05:10:06;28.90;;;9.25;;
50495;SDS011;38806;51.554;5.704;2023-04-25T05:12:06;25.20;;;10.25;;
50495;SDS011;38806;51.554;5.704;2023-04-25T05:14:07;28.98;;;9.30;;
50495;SDS011;38806;51.554;5.704;2023-04-25T05:16:07;32.28;;;10.15;;
50495;SDS011;38806;51.554;5.704;2023-04-25T05:18:07;17.23;;;8.93;;
50495;SDS011;38806;51.554;5.704;2023-04-25T05:20:07;19.58;;;7.78;;
50495;SDS011;38806;51.554;5.704;2023-04-25T05:22:09;22.05;;;9.88;;
50495;SDS011;38806;51.554;5.704;2023-04-25T05:24:09;22.08;;;8.63;;
50495;SDS011;38806;51.554;5.704;2023-04-25T05:26:09;23.83;;;8.85;;
50495;SDS011;38806;51.554;5.704;2023-04-25T05:28:13;22.13;;;9.10;;
50495;SDS011;38806;51.554;5.704;2023-04-25T05:30:13;23.77;;;7.80;;
50495;SDS011;38806;51.554;5.704;2023-04-25T05:32:13;20.02;;;8.98;;
50495;SDS011;38806;51.554;5.704;2023-04-25T05:34:14;18.77;;;8.70;;
50495;SDS011;38806;51.554;5.704;2023-04-25T05:36:14;27.98;;;8.38;;
50495;SDS011;38806;51.554;5.704;2023-04-25T05:38:14;24.60;;;8.65;;
50495;SDS011;38806;51.554;5.704;2023-04-25T05:40:14;25.17;;;8.20;;
50495;SDS011;38806;51.554;5.704;2023-04-25T05:42:15;19.27;;;8.68;;
50495;SDS011;38806;51.554;5.704;2023-04-25T05:44:15;19.98;;;7.53;;
50495;SDS011;38806;51.554;5.704;2023-04-25T05:46:15;18.73;;;8.15;;
50495;SDS011;38806;51.554;5.704;2023-04-25T05:48:19;28.05;;;9.23;;
50495;SDS011;38806;51.554;5.704;2023-04-25T05:50:20;21.38;;;6.40;;
50495;SDS011;38806;51.554;5.704;2023-04-25T05:52:20;27.50;;;8.20;;
50495;SDS011;38806;51.554;5.704;2023-04-25T05:54:20;23.20;;;7.43;;
50495;SDS011;38806;51.554;5.704;2023-04-25T05:56:21;26.70;;;8.23;;
50495;SDS011;38806;51.554;5.704;2023-04-25T05:58:21;17.52;;;6.25;;
50495;SDS011;38806;51.554;5.704;2023-04-25T06:00:21;22.30;;;6.82;;
50495;SDS011;38806;51.554;5.704;2023-04-25T06:02:22;18.77;;;7.65;;
50495;SDS011;38806;51.554;5.704;2023-04-25T06:04:22;20.42;;;6.88;;
50495;SDS011;38806;51.554;5.704;2023-04-25T06:06:23;17.00;;;6.07;;
50495;SDS011;38806;51.554;5.704;2023-04-25T06:08:23;17.35;;;8.85;;
50495;SDS011;38806;51.554;5.704;2023-04-25T06:10:23;14.40;;;4.80;;
50495;SDS011;38806;51.554;5.704;2023-04-25T06:12:23;12.77;;;5.22;;
50495;SDS011;38806;51.554;5.704;2023-04-25T06:14:23;14.52;;;5.75;;
50495;SDS011;38806;51.554;5.704;2023-04-25T06:16:24;14.07;;;4.82;;
50495;SDS011;38806;51.554;5.704;2023-04-25T06:18:25;15.77;;;4.85;;
50495;SDS011;38806;51.554;5.704;2023-04-25T06:20:26;15.05;;;4.50;;
50495;SDS011;38806;51.554;5.704;2023-04-25T06:22:26;17.50;;;4.18;;
50495;SDS011;38806;51.554;5.704;2023-04-25T06:24:26;11.35;;;4.55;;
50495;SDS011;38806;51.554;5.704;2023-04-25T06:26:26;8.98;;;5.15;;
50495;SDS011;38806;51.554;5.704;2023-04-25T06:28:26;22.50;;;6.07;;
50495;SDS011;38806;51.554;5.704;2023-04-25T06:30:27;14.75;;;4.75;;
50495;SDS011;38806;51.554;5.704;2023-04-25T06:32:27;8.82;;;4.72;;
50495;SDS011;38806;51.554;5.704;2023-04-25T06:34:29;9.82;;;4.15;;
50495;SDS011;38806;51.554;5.704;2023-04-25T06:36:30;13.45;;;5.15;;
50495;SDS011;38806;51.554;5.704;2023-04-25T06:38:30;20.00;;;5.43;;
50495;SDS011;38806;51.554;5.704;2023-04-25T06:40:31;10.70;;;3.67;;
50495;SDS011;38806;51.554;5.704;2023-04-25T06:42:31;7.93;;;4.03;;
50495;SDS011;38806;51.554;5.704;2023-04-25T06:44:31;9.60;;;3.53;;
50495;SDS011;38806;51.554;5.704;2023-04-25T06:46:31;17.55;;;5.05;;
50495;SDS011;38806;51.554;5.704;2023-04-25T06:48:31;8.43;;;3.72;;
50495;SDS011;38806;51.554;5.704;2023-04-25T06:50:32;12.73;;;3.80;;
50495;SDS011;38806;51.554;5.704;2023-04-25T06:52:32;9.93;;;3.80;;
50495;SDS011;38806;51.554;5.704;2023-04-25T06:54:32;7.80;;;4.00;;
50495;SDS011;38806;51.554;5.704;2023-04-25T06:56:32;10.10;;;3.78;;
50495;SDS011;38806;51.554;5.704;2023-04-25T06:58:32;10.60;;;5.80;;
50495;SDS011;38806;51.554;5.704;2023-04-25T07:00:33;11.60;;;3.35;;
50495;SDS011;38806;51.554;5.704;2023-04-25T07:02:33;10.00;;;3.75;;
50495;SDS011;38806;51.554;5.704;2023-04-25T07:04:33;11.75;;;4.07;;
50495;SDS011;38806;51.554;5.704;2023-04-25T07:06:34;11.85;;;4.32;;
50495;SDS011;38806;51.554;5.704;2023-04-25T07:08:34;10.57;;;3.70;;
50495;SDS011;38806;51.554;5.704;2023-04-25T07:10:34;8.55;;;3.20;;
50495;SDS011;38806;51.554;5.704;2023-04-25T07:12:35;11.75;;;4.20;;
50495;SDS011;38806;51.554;5.704;2023-04-25T07:14:35;14.35;;;4.60;;
50495;SDS011;38806;51.554;5.704;2023-04-25T07:16:35;14.65;;;4.78;;
50495;SDS011;38806;51.554;5.704;2023-04-25T07:18:35;12.65;;;5.32;;
50495;SDS011;38806;51.554;5.704;2023-04-25T07:20:35;11.13;;;3.50;;
50495;SDS011;38806;51.554;5.704;2023-04-25T07:22:36;17.58;;;4.63;;
50495;SDS011;38806;51.554;5.704;2023-04-25T07:24:36;10.80;;;3.88;;
50495;SDS011;38806;51.554;5.704;2023-04-25T07:26:36;12.25;;;3.28;;
50495;SDS011;38806;51.554;5.704;2023-04-25T07:28:37;12.90;;;4.18;;
50495;SDS011;38806;51.554;5.704;2023-04-25T07:30:37;9.60;;;3.17;;
50495;SDS011;38806;51.554;5.704;2023-04-25T07:32:38;10.80;;;3.95;;
50495;SDS011;38806;51.554;5.704;2023-04-25T07:34:38;14.88;;;4.22;;
50495;SDS011;38806;51.554;5.704;2023-04-25T07:36:38;12.57;;;3.58;;
50495;SDS011;38806;51.554;5.704;2023-04-25T07:38:39;16.67;;;4.38;;
50495;SDS011;38806;51.554;5.704;2023-04-25T07:40:39;12.02;;;3.45;;
50495;SDS011;38806;51.554;5.704;2023-04-25T07:42:39;12.18;;;4.10;;
50495;SDS011;38806;51.554;5.704;2023-04-25T07:44:40;8.18;;;3.47;;
50495;SDS011;38806;51.554;5.704;2023-04-25T07:46:40;9.63;;;2.85;;
50495;SDS011;38806;51.554;5.704;2023-04-25T07:48:40;10.32;;;4.32;;
50495;SDS011;38806;51.554;5.704;2023-04-25T07:50:40;7.00;;;3.25;;
50495;SDS011;38806;51.554;5.704;2023-04-25T07:52:40;11.10;;;3.20;;
50495;SDS011;38806;51.554;5.704;2023-04-25T07:54:41;8.77;;;2.92;;
50495;SDS011;38806;51.554;5.704;2023-04-25T07:56:41;6.93;;;3.50;;
50495;SDS011;38806;51.554;5.704;2023-04-25T07:58:41;9.18;;;3.08;;
50495;SDS011;38806;51.554;5.704;2023-04-25T08:00:42;8.20;;;3.28;;
50495;SDS011;38806;51.554;5.704;2023-04-25T08:02:42;16.63;;;4.93;;
50495;SDS011;38806;51.554;5.704;2023-04-25T08:04:42;13.00;;;2.88;;
50495;SDS011;38806;51.554;5.704;2023-04-25T08:06:42;12.07;;;2.88;;
50495;SDS011;38806;51.554;5.704;2023-04-25T08:08:42;11.85;;;2.70;;
50495;SDS011;38806;51.554;5.704;2023-04-25T08:10:43;11.02;;;3.30;;
50495;SDS011;38806;51.554;5.704;2023-04-25T08:12:43;8.57;;;2.97;;
50495;SDS011;38806;51.554;5.704;2023-04-25T08:14:43;10.20;;;2.78;;
50495;SDS011;38806;51.554;5.704;2023-04-25T08:16:43;8.63;;;3.35;;
50495;SDS011;38806;51.554;5.704;2023-04-25T08:18:44;10.43;;;3.45;;
50495;SDS011;38806;51.554;5.704;2023-04-25T08:20:44;11.55;;;4.05;;
50495;SDS011;38806;51.554;5.704;2023-04-25T08:22:45;10.13;;;3.95;;
50495;SDS011;38806;51.554;5.704;2023-04-25T08:24:45;11.77;;;3.95;;
50495;SDS011;38806;51.554;5.704;2023-04-25T08:26:45;8.10;;;3.35;;
50495;SDS011;38806;51.554;5.704;2023-04-25T08:28:45;13.80;;;3.22;;
50495;SDS011;38806;51.554;5.704;2023-04-25T08:30:46;10.75;;;2.03;;
50495;SDS011;38806;51.554;5.704;2023-04-25T08:32:47;10.38;;;3.38;;
50495;SDS011;38806;51.554;5.704;2023-04-25T08:34:47;8.27;;;2.30;;
50495;SDS011;38806;51.554;5.704;2023-04-25T08:36:47;8.48;;;2.20;;
50495;SDS011;38806;51.554;5.704;2023-04-25T08:38:47;6.47;;;1.88;;
50495;SDS011;38806;51.554;5.704;2023-04-25T08:40:50;8.40;;;2.88;;
50495;SDS011;38806;51.554;5.704;2023-04-25T08:42:53;9.10;;;3.05;;
50495;SDS011;38806;51.554;5.704;2023-04-25T08:44:55;7.88;;;2.33;;
50495;SDS011;38806;51.554;5.704;2023-04-25T08:46:55;6.68;;;1.88;;
50495;SDS011;38806;51.554;5.704;2023-04-25T08:48:57;8.15;;;2.13;;
50495;SDS011;38806;51.554;5.704;2023-04-25T08:51:01;11.90;;;2.22;;
50495;SDS011;38806;51.554;5.704;2023-04-25T08:53:01;8.52;;;2.22;;
50495;SDS011;38806;51.554;5.704;2023-04-25T08:55:04;8.65;;;2.85;;
50495;SDS011;38806;51.554;5.704;2023-04-25T08:57:04;11.18;;;3.22;;
50495;SDS011;38806;51.554;5.704;2023-04-25T08:59:05;8.77;;;3.17;;
50495;SDS011;38806;51.554;5.704;2023-04-25T09:01:07;8.77;;;2.90;;
50495;SDS011;38806;51.554;5.704;2023-04-25T09:03:08;11.10;;;2.67;;
50495;SDS011;38806;51.554;5.704;2023-04-25T09:05:08;9.00;;;3.22;;
50495;SDS011;38806;51.554;5.704;2023-04-25T09:07:09;6.57;;;1.92;;
50495;SDS011;38806;51.554;5.704;2023-04-25T09:09:10;10.48;;;2.30;;
50495;SDS011;38806;51.554;5.704;2023-04-25T09:11:12;10.48;;;3.85;;
50495;SDS011;38806;51.554;5.704;2023-04-25T09:13:13;7.88;;;2.30;;
50495;SDS011;38806;51.554;5.704;2023-04-25T09:15:14;5.45;;;2.00;;
50495;SDS011;38806;51.554;5.704;2023-04-25T09:17:15;8.55;;;2.17;;
50495;SDS011;38806;51.554;5.704;2023-04-25T09:19:25;4.95;;;1.58;;
50495;SDS011;38806;51.554;5.704;2023-04-25T09:21:25;7.72;;;2.35;;
50495;SDS011;38806;51.554;5.704;2023-04-25T09:23:27;7.53;;;2.00;;
50495;SDS011;38806;51.554;5.704;2023-04-25T09:25:27;7.83;;;1.80;;
50495;SDS011;38806;51.554;5.704;2023-04-25T09:27:33;9.45;;;2.97;;
50495;SDS011;38806;51.554;5.704;2023-04-25T09:29:35;9.90;;;2.28;;
50495;SDS011;38806;51.554;5.704;2023-04-25T09:31:36;5.03;;;1.80;;
50495;SDS011;38806;51.554;5.704;2023-04-25T09:33:36;8.60;;;3.05;;
50495;SDS011;38806;51.554;5.704;2023-04-25T09:35:37;11.95;;;3.15;;
50495;SDS011;38806;51.554;5.704;2023-04-25T09:37:39;11.52;;;2.83;;
50495;SDS011;38806;51.554;5.704;2023-04-25T09:39:40;10.52;;;2.92;;
50495;SDS011;38806;51.554;5.704;2023-04-25T09:41:40;7.93;;;2.38;;
50495;SDS011;38806;51.554;5.704;2023-04-25T09:43:41;6.55;;;2.72;;
50495;SDS011;38806;51.554;5.704;2023-04-25T09:45:44;8.00;;;3.13;;
50495;SDS011;38806;51.554;5.704;2023-04-25T09:47:45;13.77;;;3.70;;
50495;SDS011;38806;51.554;5.704;2023-04-25T09:49:46;6.32;;;2.60;;
50495;SDS011;38806;51.554;5.704;2023-04-25T09:51:55;5.72;;;2.67;;
50495;SDS011;38806;51.554;5.704;2023-04-25T09:53:56;5.63;;;1.63;;
50495;SDS011;38806;51.554;5.704;2023-04-25T09:55:56;3.22;;;1.27;;
50495;SDS011;38806;51.554;5.704;2023-04-25T09:57:57;6.22;;;2.13;;
50495;SDS011;38806;51.554;5.704;2023-04-25T10:00:00;8.75;;;2.90;;
50495;SDS011;38806;51.554;5.704;2023-04-25T10:02:01;4.53;;;1.65;;
50495;SDS011;38806;51.554;5.704;2023-04-25T10:04:01;10.45;;;1.88;;
50495;SDS011;38806;51.554;5.704;2023-04-25T10:06:04;2.30;;;0.93;;
50495;SDS011;38806;51.554;5.704;2023-04-25T10:08:06;4.85;;;1.40;;
50495;SDS011;38806;51.554;5.704;2023-04-25T10:10:08;5.97;;;1.77;;
50495;SDS011;38806;51.554;5.704;2023-04-25T10:12:09;3.95;;;1.30;;
50495;SDS011;38806;51.554;5.704;2023-04-25T10:14:09;4.20;;;1.20;;
50495;SDS011;38806;51.554;5.704;2023-04-25T10:16:11;6.45;;;1.25;;
50495;SDS011;38806;51.554;5.704;2023-04-25T10:18:11;4.45;;;1.60;;
50495;SDS011;38806;51.554;5.704;2023-04-25T10:20:12;2.47;;;0.90;;
50495;SDS011;38806;51.554;5.704;2023-04-25T10:22:14;6.13;;;2.00;;
50495;SDS011;38806;51.554;5.704;2023-04-25T10:24:16;3.10;;;0.98;;
50495;SDS011;38806;51.554;5.704;2023-04-25T10:26:17;4.93;;;1.10;;
50495;SDS011;38806;51.554;5.704;2023-04-25T10:28:18;4.68;;;1.20;;
50495;SDS011;38806;51.554;5.704;2023-04-25T10:30:18;6.10;;;1.90;;
50495;SDS011;38806;51.554;5.704;2023-04-25T10:32:18;4.53;;;1.00;;
50495;SDS011;38806;51.554;5.704;2023-04-25T10:34:19;4.30;;;1.10;;
50495;SDS011;38806;51.554;5.704;2023-04-25T10:36:20;7.97;;;1.35;;
50495;SDS011;38806;51.554;5.704;2023-04-25T10:38:23;4.68;;;1.13;;
50495;SDS011;38806;51.554;5.704;2023-04-25T10:40:23;4.95;;;1.77;;
50495;SDS011;38806;51.554;5.704;2023-04-25T10:42:23;6.50;;;2.30;;
50495;SDS011;38806;51.554;5.704;2023-04-25T10:44:30;6.70;;;1.87;;
50495;SDS011;38806;51.554;5.704;2023-04-25T10:46:30;6.13;;;1.70;;
50495;SDS011;38806;51.554;5.704;2023-04-25T10:48:33;4.18;;;1.92;;
50495;SDS011;38806;51.554;5.704;2023-04-25T10:50:37;7.15;;;2.42;;
50495;SDS011;38806;51.554;5.704;2023-04-25T10:52:38;4.65;;;1.52;;
50495;SDS011;38806;51.554;5.704;2023-04-25T10:54:40;6.40;;;2.35;;
50495;SDS011;38806;51.554;5.704;2023-04-25T10:56:41;4.18;;;1.50;;
50495;SDS011;38806;51.554;5.704;2023-04-25T10:58:46;6.22;;;1.75;;
50495;SDS011;38806;51.554;5.704;2023-04-25T11:00:47;7.75;;;3.83;;
50495;SDS011;38806;51.554;5.704;2023-04-25T11:02:48;8.80;;;2.10;;
50495;SDS011;38806;51.554;5.704;2023-04-25T11:04:50;7.72;;;2.30;;
50495;SDS011;38806;51.554;5.704;2023-04-25T11:08:54;6.70;;;1.70;;
50495;SDS011;38806;51.554;5.704;2023-04-25T11:10:55;4.68;;;1.65;;
50495;SDS011;38806;51.554;5.704;2023-04-25T11:12:55;5.60;;;1.90;;
50495;SDS011;38806;51.554;5.704;2023-04-25T11:14:59;5.60;;;1.30;;
50495;SDS011;38806;51.554;5.704;2023-04-25T11:17:01;6.93;;;1.30;;
50495;SDS011;38806;51.554;5.704;2023-04-25T11:19:02;6.32;;;1.60;;
50495;SDS011;38806;51.554;5.704;2023-04-25T11:21:03;5.57;;;1.73;;
50495;SDS011;38806;51.554;5.704;2023-04-25T11:23:04;6.20;;;2.00;;
50495;SDS011;38806;51.554;5.704;2023-04-25T11:25:04;9.40;;;1.90;;
50495;SDS011;38806;51.554;5.704;2023-04-25T11:27:05;8.55;;;1.92;;
50495;SDS011;38806;51.554;5.704;2023-04-25T11:29:05;5.97;;;1.88;;
50495;SDS011;38806;51.554;5.704;2023-04-25T11:31:06;7.75;;;2.15;;
50495;SDS011;38806;51.554;5.704;2023-04-25T11:33:06;5.07;;;1.75;;
50495;SDS011;38806;51.554;5.704;2023-04-25T11:35:06;6.45;;;1.77;;
50495;SDS011;38806;51.554;5.704;2023-04-25T11:37:07;3.78;;;1.45;;
50495;SDS011;38806;51.554;5.704;2023-04-25T11:39:07;4.20;;;1.55;;
50495;SDS011;38806;51.554;5.704;2023-04-25T11:41:07;7.35;;;2.65;;
50495;SDS011;38806;51.554;5.704;2023-04-25T11:43:07;7.00;;;3.03;;
50495;SDS011;38806;51.554;5.704;2023-04-25T11:45:09;7.57;;;1.70;;
50495;SDS011;38806;51.554;5.704;2023-04-25T11:47:09;8.65;;;1.63;;
50495;SDS011;38806;51.554;5.704;2023-04-25T11:49:09;7.85;;;2.10;;
50495;SDS011;38806;51.554;5.704;2023-04-25T11:51:10;8.13;;;2.00;;
50495;SDS011;38806;51.554;5.704;2023-04-25T11:53:10;6.78;;;1.85;;
50495;SDS011;38806;51.554;5.704;2023-04-25T11:55:14;4.65;;;1.75;;
50495;SDS011;38806;51.554;5.704;2023-04-25T11:57:15;8.43;;;1.83;;
50495;SDS011;38806;51.554;5.704;2023-04-25T11:59:18;7.90;;;2.13;;
50495;SDS011;38806;51.554;5.704;2023-04-25T12:01:29;9.48;;;3.05;;